Moreton Corbet, United Kingdom

2:45 AM BST on May 01, 2017 (GMT +0100)
Sherlowe | | Change Station

Elev 182 ft 52.75 °N, 2.60 °W | Updated 14 seconds ago

Rain
Rain
49.1 °F
Feels Like 47 °F
N
5.6
Wind Variable Wind from NNE
Gusts 6.9 mph

Today
High -- | Low -- °F
--% Chance of Precip.
Yesterday
High -- | Low -- °F
Precip. -- in
Pressure 29.53 in
Visibility 6.2 miles
Clouds Scattered Clouds 4000 ft
Mostly Cloudy 4200 ft
Windchill 47 °F
Dew Point 46 °F
Humidity 88%
Rainfall 0.07 in
Snow Depth Not available.
5:38 AM 8:38 PM
Waxing Crescent, 28% visible
METAR EGGP 010120Z 05008KT 9999 -RA SCT040 BKN042 10/08 Q1000
Pressure 29.53 in
Visibility 6.2 miles
Clouds Scattered Clouds 4000 ft
Mostly Cloudy 4200 ft
Windchill 47 °F
Dew Point 46 °F
Humidity 88%
Rainfall 0.07 in
Snow Depth Not available.
5:38 AM 8:38 PM
Waxing Crescent, 28% visible
METAR EGGP 010120Z 05008KT 9999 -RA SCT040 BKN042 10/08 Q1000

Get Severe Weather Alerts

Thanks for signing up!

Be on the lookout for a verification email in your inbox.

You'll start receiving the daily forecast at 8 AM.

×

10-Day Weather Forecast

×

Almanac

Astronomy

May. 01, 2017 Rise Set
Actual Time
Civil Twilight
Nautical Twilight
Astronomical Twilight
Moon
Length of Visible Light
Length of Day
Tomorrow will be .
, % of the Moon is Illuminated

Today's Extremes

Country Highs Country Lows

Community

WunderPhotos

WunderBlog® & News

Nearby

Air Quality

  Air Quality AQ Index Pollutant
Not available.

Snow Depth

Station Depth Elevation

Earthquake Activity

City Distance Mag. Time & Date
Minimum magnitude displayed is 2.5.

Coastal Water Temperatures

Place Temperature

Stations

Nearby Weather Stations

Station Location Temp. Windchill Dew Point Humidity Wind Precip. Elev Updated Type